createdAt,value
2022-08-20T00:02:17.145Z,10.30
2022-08-20T00:04:45.324Z,9.40
2022-08-20T00:07:15.785Z,9.50
2022-08-20T00:09:46.335Z,10.60
2022-08-20T00:12:17.809Z,9.80
2022-08-20T00:14:46.756Z,9.90
2022-08-20T00:17:14.636Z,8.90
2022-08-20T00:19:42.413Z,9.50
2022-08-20T00:22:10.216Z,10.10
2022-08-20T00:24:38.185Z,9.10
2022-08-20T00:27:06.320Z,8.90
2022-08-20T00:29:34.105Z,10.60
2022-08-20T00:32:01.956Z,10.40
2022-08-20T00:34:31.172Z,10.00
2022-08-20T00:36:58.885Z,9.80
2022-08-20T00:39:28.041Z,10.30
2022-08-20T00:41:55.806Z,9.90
2022-08-20T00:44:23.701Z,10.10
2022-08-20T00:46:53.952Z,10.20
2022-08-20T00:49:26.587Z,10.30
2022-08-20T00:52:12.683Z,9.40
2022-08-20T00:54:50.746Z,9.90
2022-08-20T00:57:27.025Z,10.20
2022-08-20T01:02:46.644Z,9.70
2022-08-20T01:05:19.613Z,10.30
2022-08-20T01:07:48.610Z,10.50
2022-08-20T01:10:29.871Z,10.80
2022-08-20T01:13:03.472Z,10.50
2022-08-20T01:15:31.995Z,10.10
2022-08-20T01:18:02.356Z,10.30
2022-08-20T01:20:54.456Z,9.80
2022-08-20T01:23:33.419Z,11.50
2022-08-20T01:26:10.344Z,10.00
2022-08-20T01:28:44.483Z,9.70
2022-08-20T01:31:17.259Z,10.10
2022-08-20T01:33:49.964Z,10.00
2022-08-20T01:36:23.088Z,9.50
2022-08-20T01:38:54.568Z,10.60
2022-08-20T01:41:32.968Z,10.90
2022-08-20T01:44:04.403Z,10.00
2022-08-20T01:46:38.924Z,9.70
2022-08-20T01:49:35.392Z,10.40
2022-08-20T01:52:08.814Z,9.60
2022-08-20T01:54:36.578Z,9.80
2022-08-20T01:57:17.459Z,10.30
2022-08-20T01:59:48.898Z,9.60
2022-08-20T02:02:18.430Z,10.10
2022-08-20T02:04:46.189Z,10.60
2022-08-20T02:07:21.657Z,10.20
2022-08-20T02:09:51.137Z,10.50
2022-08-20T02:12:20.481Z,10.70
2022-08-20T02:14:52.263Z,10.60
2022-08-20T02:17:23.518Z,9.70
2022-08-20T02:20:00.182Z,10.30
2022-08-20T02:22:50.375Z,10.70
2022-08-20T02:25:22.892Z,11.10
2022-08-20T02:27:53.505Z,11.60
2022-08-20T02:30:28.476Z,10.60
2022-08-20T02:32:58.106Z,12.20
2022-08-20T02:35:27.929Z,11.30
2022-08-20T02:37:57.512Z,11.20
2022-08-20T02:40:31.168Z,11.10
2022-08-20T02:43:02.935Z,11.30
2022-08-20T02:45:37.381Z,11.80
2022-08-20T02:48:06.559Z,11.40
2022-08-20T02:50:34.567Z,11.50
2022-08-20T02:53:02.830Z,11.30
2022-08-20T02:55:31.072Z,11.50
2022-08-20T02:58:02.175Z,11.50
2022-08-20T03:00:38.336Z,11.90
2022-08-20T03:03:11.172Z,11.30
2022-08-20T03:05:41.870Z,12.00
2022-08-20T03:08:14.988Z,10.90
2022-08-20T03:10:46.306Z,11.10
2022-08-20T03:13:16.682Z,11.50
2022-08-20T03:15:48.928Z,11.00
2022-08-20T03:18:19.943Z,10.50
2022-08-20T03:20:52.152Z,10.50
2022-08-20T03:23:22.303Z,11.40
2022-08-20T03:25:50.215Z,11.50
2022-08-20T03:28:20.012Z,11.80
2022-08-20T03:30:51.561Z,11.70
2022-08-20T03:33:21.497Z,11.00
2022-08-20T03:35:49.388Z,10.60
2022-08-20T03:38:21.556Z,11.80
2022-08-20T03:41:04.542Z,11.20
2022-08-20T03:43:33.684Z,11.60
2022-08-20T03:46:03.560Z,11.80
2022-08-20T03:48:31.493Z,12.10
2022-08-20T03:51:01.109Z,11.40
2022-08-20T03:53:33.321Z,12.20
2022-08-20T03:56:05.600Z,12.40
2022-08-20T03:58:36.701Z,12.10
2022-08-20T04:01:07.270Z,11.40
2022-08-20T04:03:36.771Z,11.70
2022-08-20T04:06:05.612Z,12.10
2022-08-20T04:08:33.434Z,13.80
2022-08-20T04:11:01.282Z,12.60
2022-08-20T04:13:31.490Z,13.00
2022-08-20T04:16:11.246Z,13.40
2022-08-20T04:18:56.096Z,12.60
2022-08-20T04:21:36.224Z,12.90
2022-08-20T04:26:38.245Z,11.80
2022-08-20T04:29:06.056Z,12.80
2022-08-20T04:31:35.409Z,12.40
2022-08-20T04:34:08.381Z,12.40
2022-08-20T04:36:37.388Z,12.30
2022-08-20T04:39:05.228Z,11.60
2022-08-20T04:41:32.976Z,12.80
2022-08-20T04:44:01.983Z,12.20
2022-08-20T04:46:32.741Z,12.30
2022-08-20T04:49:04.687Z,11.50
2022-08-20T04:51:34.378Z,11.30
2022-08-20T04:54:05.318Z,11.70
2022-08-20T04:56:40.701Z,12.00
2022-08-20T04:59:08.619Z,11.40
2022-08-20T05:01:36.609Z,11.70
2022-08-20T05:04:06.471Z,12.80
2022-08-20T05:06:35.465Z,13.30
2022-08-20T05:09:06.071Z,13.00
2022-08-20T05:11:37.053Z,13.60
2022-08-20T05:14:11.505Z,13.30
2022-08-20T05:19:12.628Z,12.90
2022-08-20T05:21:41.747Z,12.50
2022-08-20T05:24:12.310Z,12.80
2022-08-20T05:26:42.787Z,12.00
2022-08-20T05:29:10.608Z,11.30
2022-08-20T05:31:40.379Z,12.00
2022-08-20T05:34:12.962Z,10.10
2022-08-20T05:36:49.639Z,10.60
2022-08-20T05:39:21.616Z,11.60
2022-08-20T05:41:50.985Z,9.70
2022-08-20T05:44:20.866Z,9.50
2022-08-20T05:46:48.791Z,10.90
2022-08-20T05:49:22.685Z,9.40
2022-08-20T05:51:53.668Z,10.30
2022-08-20T05:54:24.875Z,9.30
2022-08-20T05:56:52.813Z,9.50
2022-08-20T05:59:24.283Z,9.80
2022-08-20T06:01:54.229Z,9.30
2022-08-20T06:04:25.062Z,9.10
2022-08-20T06:07:05.127Z,9.80
2022-08-20T06:09:36.130Z,8.90
2022-08-20T06:12:08.472Z,10.20
2022-08-20T06:14:36.467Z,10.80
2022-08-20T06:17:09.450Z,9.60
2022-08-20T06:19:42.739Z,9.90
2022-08-20T06:22:19.787Z,9.30
2022-08-20T06:24:57.075Z,10.10
2022-08-20T06:27:24.868Z,9.70
2022-08-20T06:29:53.985Z,9.30
2022-08-20T06:32:32.158Z,9.00
2022-08-20T06:35:06.001Z,10.90
2022-08-20T06:37:38.473Z,8.70
2022-08-20T06:40:17.543Z,9.00
2022-08-20T06:42:48.764Z,8.40
2022-08-20T06:45:25.729Z,8.60
2022-08-20T06:47:59.488Z,9.30
2022-08-20T06:50:44.458Z,8.30
2022-08-20T06:53:20.972Z,7.80
2022-08-20T06:55:54.092Z,8.60
2022-08-20T07:01:11.639Z,7.90
2022-08-20T07:03:55.531Z,7.90
2022-08-20T07:06:27.101Z,7.70
2022-08-20T07:08:56.437Z,8.10
2022-08-20T07:11:28.410Z,8.60
2022-08-20T07:14:00.439Z,9.20
2022-08-20T07:16:30.764Z,7.70
2022-08-20T07:18:59.731Z,7.80
2022-08-20T07:21:27.648Z,8.60
2022-08-20T07:23:55.447Z,8.30
2022-08-20T07:26:23.423Z,7.70
2022-08-20T07:28:51.549Z,8.00
2022-08-20T07:31:39.056Z,7.60
2022-08-20T07:34:12.447Z,6.60
2022-08-20T07:36:41.439Z,7.00
2022-08-20T07:39:09.461Z,6.10
2022-08-20T07:41:37.225Z,5.90
2022-08-20T07:44:04.945Z,7.10
2022-08-20T07:46:33.887Z,6.10
2022-08-20T07:49:01.735Z,5.80
2022-08-20T07:51:29.589Z,6.40
2022-08-20T07:53:59.355Z,6.10
2022-08-20T07:56:27.976Z,5.60
2022-08-20T07:59:00.147Z,5.90
2022-08-20T08:01:31.941Z,6.10
2022-08-20T08:04:02.750Z,5.40
2022-08-20T08:06:32.268Z,5.80
2022-08-20T08:09:13.218Z,5.50
2022-08-20T08:11:50.089Z,5.70
2022-08-20T08:14:27.086Z,5.10
2022-08-20T08:16:59.095Z,5.20
2022-08-20T08:19:35.366Z,5.50
2022-08-20T08:22:04.564Z,5.20
2022-08-20T08:24:32.507Z,4.80
2022-08-20T08:27:01.528Z,5.40
2022-08-20T08:29:29.603Z,5.60
2022-08-20T08:31:57.322Z,5.00
2022-08-20T08:34:26.853Z,5.20
2022-08-20T08:36:54.674Z,5.10
2022-08-20T08:39:26.238Z,5.70
2022-08-20T08:42:07.101Z,5.70
2022-08-20T08:44:43.000Z,4.80
2022-08-20T08:47:21.736Z,5.10
2022-08-20T08:49:51.122Z,5.10
2022-08-20T08:52:32.394Z,4.80
2022-08-20T08:55:08.073Z,5.00
2022-08-20T08:57:37.080Z,5.10
2022-08-20T09:00:14.348Z,5.00
2022-08-20T09:02:59.632Z,5.50
2022-08-20T09:05:53.293Z,4.70
2022-08-20T09:08:37.206Z,4.70
2022-08-20T09:11:09.340Z,4.70
2022-08-20T09:13:37.449Z,4.80
2022-08-20T09:16:05.261Z,4.90
2022-08-20T09:18:33.109Z,4.90
2022-08-20T09:21:01.000Z,5.00
2022-08-20T09:23:28.822Z,4.70
2022-08-20T09:25:57.837Z,4.80
2022-08-20T09:28:32.332Z,4.90
2022-08-20T09:31:05.715Z,4.20
2022-08-20T09:33:35.789Z,4.60
2022-08-20T09:36:03.957Z,4.90
2022-08-20T09:38:53.757Z,4.50
2022-08-20T09:41:23.577Z,4.10
2022-08-20T09:43:51.383Z,4.60
2022-08-20T09:46:19.159Z,4.80
2022-08-20T09:48:49.007Z,4.60
2022-08-20T09:51:17.866Z,4.90
2022-08-20T09:53:46.671Z,4.50
2022-08-20T09:56:14.709Z,4.60
2022-08-20T09:58:50.393Z,4.50
2022-08-20T10:01:22.476Z,4.80
2022-08-20T10:03:52.700Z,4.90
2022-08-20T10:06:21.656Z,5.30
2022-08-20T10:08:51.340Z,5.00
2022-08-20T10:11:21.105Z,5.00
2022-08-20T10:13:49.204Z,5.30
2022-08-20T10:16:16.925Z,5.00
2022-08-20T10:18:44.736Z,5.40
2022-08-20T10:21:13.611Z,5.50
2022-08-20T10:23:42.850Z,5.40
2022-08-20T10:26:13.174Z,5.10
2022-08-20T10:28:42.467Z,5.40
2022-08-20T10:31:12.761Z,5.40
2022-08-20T10:33:42.269Z,5.20
2022-08-20T10:36:16.298Z,5.10
2022-08-20T10:38:46.232Z,4.90
2022-08-20T10:41:14.015Z,4.80
2022-08-20T10:43:42.891Z,5.30
2022-08-20T10:46:13.876Z,4.90
2022-08-20T10:48:42.788Z,4.80
2022-08-20T10:51:10.621Z,5.60
2022-08-20T10:53:41.623Z,5.30
2022-08-20T10:56:13.801Z,4.60
2022-08-20T10:58:44.611Z,6.10
2022-08-20T11:01:12.545Z,7.30
2022-08-20T11:04:00.134Z,5.90
2022-08-20T11:06:27.876Z,5.70
2022-08-20T11:08:57.003Z,6.00
2022-08-20T11:11:24.966Z,5.20
2022-08-20T11:13:52.748Z,5.10
2022-08-20T11:16:20.495Z,5.50
2022-08-20T11:18:50.554Z,5.80
2022-08-20T11:21:18.391Z,5.80
2022-08-20T11:23:46.539Z,6.40
2022-08-20T11:26:22.392Z,5.90
2022-08-20T11:28:51.311Z,6.20
2022-08-20T11:31:19.079Z,5.10
2022-08-20T11:33:46.812Z,5.80
2022-08-20T11:36:14.630Z,5.20
2022-08-20T11:38:42.383Z,5.90
2022-08-20T11:41:10.359Z,5.30
2022-08-20T11:43:38.065Z,5.10
2022-08-20T11:46:05.988Z,5.30
2022-08-20T11:48:33.787Z,5.00
2022-08-20T11:51:01.563Z,5.40
2022-08-20T11:53:30.980Z,5.30
2022-08-20T11:56:03.833Z,5.80
2022-08-20T11:58:35.300Z,5.90
2022-08-20T12:01:03.027Z,6.10
2022-08-20T12:03:32.548Z,5.30
2022-08-20T12:06:00.404Z,5.70
2022-08-20T12:08:29.491Z,6.00
2022-08-20T12:10:59.976Z,6.20
2022-08-20T12:13:48.570Z,5.90
2022-08-20T12:16:20.021Z,5.20
2022-08-20T12:18:49.869Z,15.80
2022-08-20T12:21:18.773Z,13.70
2022-08-20T12:23:46.572Z,11.30
2022-08-20T12:26:18.275Z,8.00
2022-08-20T12:28:46.051Z,7.40
2022-08-20T12:31:13.853Z,6.30
2022-08-20T12:33:41.672Z,5.10
2022-08-20T12:36:12.602Z,6.30
2022-08-20T12:38:40.437Z,6.00
2022-08-20T12:41:10.091Z,5.40
2022-08-20T12:43:37.869Z,5.90
2022-08-20T12:46:05.903Z,5.20
2022-08-20T12:48:33.697Z,5.00
2022-08-20T12:51:01.635Z,5.30
2022-08-20T12:53:32.284Z,4.60
2022-08-20T12:56:06.957Z,4.70
2022-08-20T12:58:35.496Z,5.20
2022-08-20T13:01:04.777Z,4.30
2022-08-20T13:03:34.612Z,5.10
2022-08-20T13:06:12.655Z,4.60
2022-08-20T13:08:41.906Z,5.00
2022-08-20T13:11:09.848Z,4.70
2022-08-20T13:13:38.339Z,4.80
2022-08-20T13:16:06.243Z,5.10
2022-08-20T13:18:35.347Z,4.80
2022-08-20T13:21:04.563Z,4.30
2022-08-20T13:23:33.880Z,4.90
2022-08-20T13:26:01.884Z,5.20
2022-08-20T13:28:31.646Z,4.50
2022-08-20T13:31:03.588Z,4.50
2022-08-20T13:33:32.754Z,5.00
2022-08-20T13:36:02.651Z,4.90
2022-08-20T13:38:31.853Z,5.10
2022-08-20T13:40:59.733Z,4.50
2022-08-20T13:43:29.537Z,5.00
2022-08-20T13:46:00.284Z,4.50
2022-08-20T13:48:28.045Z,5.40
2022-08-20T13:50:55.909Z,5.70
2022-08-20T13:53:24.059Z,5.50
2022-08-20T13:55:52.797Z,5.20
2022-08-20T13:58:23.196Z,5.20
2022-08-20T14:00:53.412Z,5.30
2022-08-20T14:03:25.438Z,5.70
2022-08-20T14:05:54.333Z,5.00
2022-08-20T14:08:24.828Z,5.70
2022-08-20T14:10:54.536Z,5.80
2022-08-20T14:13:24.403Z,5.40
2022-08-20T14:15:52.873Z,5.70
2022-08-20T14:18:20.867Z,5.50
2022-08-20T14:20:49.281Z,7.60
2022-08-20T14:23:18.238Z,8.50
2022-08-20T14:25:50.276Z,5.20
2022-08-20T14:28:21.947Z,5.60
2022-08-20T14:30:53.502Z,5.10
2022-08-20T14:33:25.568Z,5.30
2022-08-20T14:35:55.671Z,5.40
2022-08-20T14:38:23.650Z,5.50
2022-08-20T14:40:52.619Z,5.50
2022-08-20T14:43:20.402Z,6.00
2022-08-20T14:45:49.174Z,5.10
2022-08-20T14:48:19.430Z,5.20
2022-08-20T14:50:47.294Z,5.70
2022-08-20T14:53:17.108Z,5.30
2022-08-20T14:55:46.074Z,5.30
2022-08-20T14:58:17.959Z,4.90
2022-08-20T15:00:46.956Z,5.70
2022-08-20T15:03:16.173Z,5.10
2022-08-20T15:05:44.133Z,5.20
2022-08-20T15:08:11.977Z,5.40
2022-08-20T15:10:43.788Z,5.40
2022-08-20T15:13:11.554Z,5.40
2022-08-20T15:15:41.195Z,5.10
2022-08-20T15:18:12.154Z,5.20
2022-08-20T15:20:42.282Z,4.80
2022-08-20T15:23:12.390Z,5.00
2022-08-20T15:25:42.612Z,5.10
2022-08-20T15:28:13.314Z,5.10
2022-08-20T15:30:44.284Z,5.00
2022-08-20T15:33:13.257Z,5.70
2022-08-20T15:35:43.141Z,5.70
2022-08-20T15:38:13.320Z,4.90
2022-08-20T15:40:43.903Z,5.40
2022-08-20T15:43:11.877Z,4.90
2022-08-20T15:45:41.872Z,4.80
2022-08-20T15:48:12.455Z,5.50
2022-08-20T15:51:00.603Z,4.90
2022-08-20T15:53:53.460Z,5.50
2022-08-20T15:59:27.093Z,5.00
2022-08-20T16:02:07.862Z,5.00
2022-08-20T16:04:52.925Z,4.80
2022-08-20T16:07:32.624Z,5.10
2022-08-20T16:10:27.999Z,4.80
2022-08-20T16:13:02.516Z,5.50
2022-08-20T16:15:39.479Z,5.80
2022-08-20T16:18:22.080Z,5.20
2022-08-20T16:20:54.219Z,5.10
2022-08-20T16:23:36.749Z,5.30
2022-08-20T16:29:11.376Z,5.50
2022-08-20T16:31:53.593Z,5.30
2022-08-20T16:34:34.937Z,5.50
2022-08-20T16:37:16.629Z,5.90
2022-08-20T16:40:19.612Z,5.60
2022-08-20T16:42:51.500Z,5.30
2022-08-20T16:45:26.152Z,6.70
2022-08-20T16:47:59.029Z,14.90
2022-08-20T16:50:39.713Z,8.30
2022-08-20T16:53:17.582Z,5.90
2022-08-20T16:55:46.014Z,5.50
2022-08-20T16:58:14.454Z,7.60
2022-08-20T17:00:45.454Z,6.60
2022-08-20T17:03:33.546Z,6.30
2022-08-20T17:06:35.408Z,6.90
2022-08-20T17:09:14.937Z,11.80
2022-08-20T17:11:49.457Z,11.50
2022-08-20T17:14:19.473Z,8.10
2022-08-20T17:16:51.597Z,8.90
2022-08-20T17:19:19.323Z,7.30
2022-08-20T17:21:49.814Z,8.40
2022-08-20T17:24:32.116Z,7.70
2022-08-20T17:27:05.198Z,7.30
2022-08-20T17:29:54.702Z,6.50
2022-08-20T17:32:29.121Z,6.90
2022-08-20T17:35:02.685Z,7.00
2022-08-20T17:37:40.707Z,7.50
2022-08-20T17:40:20.461Z,6.60
2022-08-20T17:43:05.134Z,7.20
2022-08-20T17:45:44.965Z,7.10
2022-08-20T17:48:20.247Z,6.70
2022-08-20T17:50:49.988Z,7.30
2022-08-20T17:53:30.489Z,7.20
2022-08-20T17:56:16.177Z,7.90
2022-08-20T17:59:03.174Z,6.70
2022-08-20T18:01:32.206Z,7.30
2022-08-20T18:04:01.432Z,6.60
2022-08-20T18:06:58.872Z,6.40
2022-08-20T18:09:38.419Z,7.10
2022-08-20T18:12:33.848Z,7.40
2022-08-20T18:15:26.228Z,7.00
2022-08-20T18:18:12.939Z,7.10
2022-08-20T18:21:20.717Z,7.90
2022-08-20T18:24:08.756Z,7.30
2022-08-20T18:26:46.669Z,6.90
2022-08-20T18:29:20.158Z,7.70
2022-08-20T18:31:54.974Z,7.80
2022-08-20T18:34:37.538Z,7.50
2022-08-20T18:37:14.628Z,8.00
2022-08-20T18:39:48.352Z,8.60
2022-08-20T18:42:27.200Z,8.70
2022-08-20T18:44:57.857Z,8.30
2022-08-20T18:47:34.771Z,8.90
2022-08-20T18:50:25.323Z,8.40
2022-08-20T18:53:08.869Z,8.40
2022-08-20T18:55:43.021Z,8.70
2022-08-20T18:58:31.121Z,10.10
2022-08-20T19:01:02.004Z,8.70
2022-08-20T19:03:35.999Z,8.40
2022-08-20T19:06:15.647Z,8.70
2022-08-20T19:08:48.039Z,8.80
2022-08-20T19:11:41.033Z,9.10
2022-08-20T19:14:27.774Z,8.60
2022-08-20T19:17:10.889Z,9.70
2022-08-20T19:22:07.934Z,8.60
2022-08-20T19:24:44.446Z,9.30
2022-08-20T19:27:13.372Z,9.70
2022-08-20T19:29:47.855Z,9.60
2022-08-20T19:32:24.378Z,10.10
2022-08-20T19:34:58.908Z,10.60
2022-08-20T19:37:44.448Z,9.40
2022-08-20T19:40:43.613Z,10.60
2022-08-20T19:43:18.619Z,9.60
2022-08-20T19:45:50.768Z,9.00
2022-08-20T19:48:41.808Z,9.60
2022-08-20T19:51:09.690Z,9.60
2022-08-20T19:53:45.628Z,11.50
2022-08-20T19:56:19.735Z,10.20
2022-08-20T19:59:04.675Z,10.60
2022-08-20T20:01:34.229Z,11.30
2022-08-20T20:04:08.213Z,12.10
2022-08-20T20:06:48.905Z,10.10
2022-08-20T20:09:22.463Z,10.60
2022-08-20T20:11:55.495Z,10.90
2022-08-20T20:16:58.574Z,10.10
2022-08-20T20:19:28.263Z,10.40
2022-08-20T20:22:19.895Z,11.20
2022-08-20T20:25:00.127Z,10.60
2022-08-20T20:27:29.356Z,10.10
2022-08-20T20:30:05.828Z,11.20
2022-08-20T20:32:34.202Z,10.70
2022-08-20T20:35:06.276Z,10.40
2022-08-20T20:37:49.677Z,9.50
2022-08-20T20:40:33.992Z,9.60
2022-08-20T20:43:09.118Z,10.40
2022-08-20T20:45:43.756Z,10.40
2022-08-20T20:48:25.297Z,10.00
2022-08-20T20:50:56.400Z,10.40
2022-08-20T20:53:48.418Z,10.30
2022-08-20T20:56:34.772Z,10.00
2022-08-20T20:59:06.989Z,9.50
2022-08-20T21:01:41.229Z,10.70
2022-08-20T21:04:19.265Z,11.10
2022-08-20T21:06:48.289Z,11.80
2022-08-20T21:09:17.427Z,10.60
2022-08-20T21:11:46.034Z,12.10
2022-08-20T21:14:14.163Z,11.30
2022-08-20T21:16:43.750Z,10.80
2022-08-20T21:19:12.675Z,12.00
2022-08-20T21:21:41.532Z,11.70
2022-08-20T21:24:09.980Z,11.20
2022-08-20T21:26:39.602Z,11.10
2022-08-20T21:29:10.582Z,11.60
2022-08-20T21:31:43.649Z,10.80
2022-08-20T21:34:14.756Z,10.80
2022-08-20T21:36:42.791Z,11.40
2022-08-20T21:39:11.302Z,12.00
2022-08-20T21:41:42.592Z,11.20
2022-08-20T21:44:26.211Z,11.30
2022-08-20T21:46:55.584Z,11.30
2022-08-20T21:49:25.193Z,11.30
2022-08-20T21:51:53.981Z,10.40
2022-08-20T21:54:23.180Z,11.10
2022-08-20T21:57:03.062Z,10.50
2022-08-20T21:59:31.695Z,11.10
2022-08-20T22:02:01.414Z,11.40
2022-08-20T22:04:32.307Z,10.50
2022-08-20T22:07:05.290Z,11.20
2022-08-20T22:09:34.233Z,10.70
2022-08-20T22:12:03.025Z,11.30
2022-08-20T22:14:31.401Z,10.90
2022-08-20T22:16:59.359Z,11.20
2022-08-20T22:19:27.264Z,12.10
2022-08-20T22:21:56.738Z,11.10
2022-08-20T22:24:28.882Z,12.20
2022-08-20T22:26:56.890Z,12.50
2022-08-20T22:29:25.029Z,12.10
2022-08-20T22:31:53.426Z,12.40
2022-08-20T22:34:22.076Z,11.80
2022-08-20T22:36:53.443Z,12.50
2022-08-20T22:39:21.481Z,12.90
2022-08-20T22:41:50.146Z,11.80
2022-08-20T22:44:17.965Z,13.00
2022-08-20T22:46:48.953Z,12.40
2022-08-20T22:49:24.598Z,12.00
2022-08-20T22:51:52.930Z,12.20
2022-08-20T22:54:25.145Z,11.80
2022-08-20T22:56:55.219Z,11.70
2022-08-20T22:59:24.254Z,12.90
2022-08-20T23:01:53.061Z,12.00
2022-08-20T23:04:33.060Z,13.00
2022-08-20T23:07:04.277Z,13.00
2022-08-20T23:09:32.490Z,12.30
2022-08-20T23:12:00.827Z,12.30
2022-08-20T23:14:29.441Z,12.10
2022-08-20T23:17:13.427Z,13.10
2022-08-20T23:19:46.344Z,12.20
2022-08-20T23:22:15.351Z,12.30
2022-08-20T23:24:43.542Z,11.90
2022-08-20T23:27:15.945Z,12.60
2022-08-20T23:29:45.234Z,12.60
2022-08-20T23:32:14.270Z,13.10
2022-08-20T23:34:42.465Z,11.90
2022-08-20T23:37:11.766Z,12.50
2022-08-20T23:39:39.879Z,12.20
2022-08-20T23:42:08.123Z,11.80
2022-08-20T23:44:36.220Z,12.10
2022-08-20T23:47:04.880Z,12.10
2022-08-20T23:49:33.271Z,12.70
2022-08-20T23:52:02.186Z,12.00
2022-08-20T23:54:33.495Z,12.20
2022-08-20T23:57:01.907Z,12.20
2022-08-20T23:59:36.426Z,12.70
